createdAt,value
2022-08-02T00:02:14.194Z,100672.97
2022-08-02T00:06:15.814Z,100667.78
2022-08-02T00:10:17.685Z,100673.94
2022-08-02T00:14:19.241Z,100658.28
2022-08-02T00:18:20.899Z,100657.50
2022-08-02T00:22:22.472Z,100661.91
2022-08-02T00:26:24.046Z,100652.38
2022-08-02T00:30:25.805Z,100652.38
2022-08-02T00:34:32.834Z,100654.19
2022-08-02T00:38:36.823Z,100662.94
2022-08-02T00:42:39.958Z,100669.09
2022-08-02T00:46:42.234Z,100671.72
2022-08-02T00:50:43.822Z,100669.16
2022-08-02T00:54:45.411Z,100682.25
2022-08-02T00:58:46.979Z,100682.25
2022-08-02T01:02:48.712Z,100689.19
2022-08-02T01:06:50.253Z,100694.44
2022-08-02T01:10:51.883Z,100696.22
2022-08-02T01:14:56.819Z,100692.81
2022-08-02T01:19:08.297Z,100696.31
2022-08-02T01:23:53.825Z,100708.47
2022-08-02T01:28:34.387Z,100700.63
2022-08-02T01:32:43.055Z,100694.59
2022-08-02T01:36:49.455Z,100698.06
2022-08-02T01:40:53.509Z,100690.22
2022-08-02T01:44:56.110Z,100695.41
2022-08-02T01:49:01.501Z,100694.56
2022-08-02T01:53:06.771Z,100698.03
2022-08-02T01:57:12.024Z,100691.06
2022-08-02T02:01:18.568Z,100685.81
2022-08-02T02:05:22.823Z,100692.72
2022-08-02T02:09:29.651Z,100689.22
2022-08-02T02:13:33.564Z,100690.88
2022-08-02T02:17:52.791Z,100696.94
2022-08-02T02:21:58.281Z,100696.03
2022-08-02T02:26:03.878Z,100700.34
2022-08-02T02:30:06.892Z,100701.19
2022-08-02T02:34:25.437Z,100689.00
2022-08-02T02:38:31.211Z,100695.16
2022-08-02T02:42:34.612Z,100694.31
2022-08-02T02:46:36.946Z,100689.16
2022-08-02T02:50:39.238Z,100692.63
2022-08-02T02:54:42.747Z,100690.97
2022-08-02T02:58:45.534Z,100698.84
2022-08-02T03:02:47.285Z,100690.22
2022-08-02T03:06:49.067Z,100702.38
2022-08-02T03:10:50.779Z,100699.84
2022-08-02T03:14:52.388Z,100704.19
2022-08-02T03:18:55.599Z,100704.22
2022-08-02T03:22:57.179Z,100703.31
2022-08-02T03:26:58.783Z,100716.34
2022-08-02T03:31:00.852Z,100718.09
2022-08-02T03:35:03.179Z,100722.44
2022-08-02T03:39:06.437Z,100715.50
2022-08-02T03:43:09.441Z,100716.41
2022-08-02T03:47:12.591Z,100719.84
2022-08-02T03:51:14.681Z,100723.34
2022-08-02T03:55:16.253Z,100721.56
2022-08-02T03:59:17.814Z,100712.94
2022-08-02T04:03:19.988Z,100720.72
2022-08-02T04:08:33.336Z,100723.28
2022-08-02T04:11:43.312Z,100725.03
2022-08-02T04:15:45.779Z,100724.13
2022-08-02T04:19:54.948Z,100718.94
2022-08-02T04:23:57.207Z,100727.59
2022-08-02T04:28:17.482Z,100730.19
2022-08-02T04:32:21.986Z,100732.81
2022-08-02T04:36:31.435Z,100731.03
2022-08-02T04:40:33.569Z,100733.66
2022-08-02T04:44:35.525Z,100736.25
2022-08-02T04:48:37.155Z,100743.22
2022-08-02T04:52:40.747Z,100733.69
2022-08-02T04:56:45.603Z,100738.00
2022-08-02T05:00:47.365Z,100743.22
2022-08-02T05:04:49.002Z,100747.56
2022-08-02T05:08:52.817Z,100747.50
2022-08-02T05:12:55.027Z,100740.53
2022-08-02T05:16:56.607Z,100737.06
2022-08-02T05:20:58.477Z,100745.75
2022-08-02T05:25:00.119Z,100743.13
2022-08-02T05:29:01.692Z,100753.56
2022-08-02T05:33:04.642Z,100757.06
2022-08-02T05:37:08.979Z,100753.63
2022-08-02T05:41:11.630Z,100755.38
2022-08-02T05:45:13.277Z,100748.41
2022-08-02T05:49:15.010Z,100744.94
2022-08-02T05:53:33.243Z,100754.50
2022-08-02T05:58:01.568Z,100753.56
2022-08-02T06:02:10.463Z,100754.44
2022-08-02T06:06:16.159Z,100756.16
2022-08-02T06:10:21.502Z,100765.66
2022-08-02T06:14:23.319Z,100763.09
2022-08-02T06:18:33.574Z,100761.34
2022-08-02T06:22:37.222Z,100765.63
2022-08-02T06:26:39.432Z,100773.44
2022-08-02T06:30:42.801Z,100768.16
2022-08-02T06:34:44.789Z,100763.69
2022-08-02T06:38:53.057Z,100765.28
2022-08-02T06:43:17.704Z,100764.38
2022-08-02T06:47:19.280Z,100767.78
2022-08-02T06:51:21.177Z,100773.00
2022-08-02T06:55:22.927Z,100770.44
2022-08-02T06:59:24.486Z,100775.66
2022-08-02T07:03:26.133Z,100779.19
2022-08-02T07:07:28.186Z,100781.69
2022-08-02T07:11:29.739Z,100779.94
2022-08-02T07:15:31.407Z,100771.94
2022-08-02T07:19:37.442Z,100783.13
2022-08-02T07:23:39.824Z,100777.03
2022-08-02T07:27:41.591Z,100780.41
2022-08-02T07:31:43.209Z,100778.59
2022-08-02T07:35:44.987Z,100761.97
2022-08-02T07:39:49.913Z,100767.06
2022-08-02T07:43:51.806Z,100765.25
2022-08-02T07:47:53.392Z,100772.97
2022-08-02T07:51:55.262Z,100767.56
2022-08-02T07:55:56.878Z,100769.97
2022-08-02T07:59:58.723Z,100768.13
2022-08-02T08:04:00.298Z,100763.63
2022-08-02T08:08:04.327Z,100764.41
2022-08-02T08:12:06.742Z,100753.03
2022-08-02T08:16:08.327Z,100751.16
2022-08-02T08:20:15.389Z,100757.09
2022-08-02T08:24:17.384Z,100753.56
2022-08-02T08:28:18.970Z,100746.41
2022-08-02T08:32:21.042Z,100744.41
2022-08-02T08:36:23.565Z,100745.03
2022-08-02T08:40:25.911Z,100738.75
2022-08-02T08:44:28.324Z,100743.88
2022-08-02T08:48:33.042Z,100745.41
2022-08-02T08:52:42.179Z,100746.94
2022-08-02T08:56:45.090Z,100739.00
2022-08-02T09:00:47.118Z,100742.38
2022-08-02T09:04:54.616Z,100747.41
2022-08-02T09:08:56.745Z,100743.72
2022-08-02T09:13:43.449Z,100745.34
2022-08-02T09:17:53.224Z,100754.75
2022-08-02T09:22:03.815Z,100735.31
2022-08-02T09:26:10.168Z,100732.31
2022-08-02T09:30:14.341Z,100736.41
2022-08-02T09:34:19.907Z,100728.34
2022-08-02T09:38:21.994Z,100722.88
2022-08-02T09:42:23.650Z,100730.63
2022-08-02T09:46:37.403Z,100719.13
2022-08-02T09:50:41.294Z,100715.34
2022-08-02T09:54:43.610Z,100720.47
2022-08-02T09:58:45.882Z,100718.47
2022-08-02T10:03:16.032Z,100711.97
2022-08-02T10:07:24.117Z,100704.72
2022-08-02T10:11:27.996Z,100706.38
2022-08-02T10:15:29.652Z,100702.53
2022-08-02T10:20:00.741Z,100697.84
2022-08-02T10:23:54.201Z,100691.44
2022-08-02T10:28:05.123Z,100688.63
2022-08-02T10:32:11.227Z,100674.53
2022-08-02T10:36:14.297Z,100675.84
2022-08-02T10:40:26.691Z,100671.03
2022-08-02T10:44:31.357Z,100665.44
2022-08-02T10:49:18.469Z,100654.66
2022-08-02T10:53:30.600Z,100653.66
2022-08-02T10:57:33.841Z,100652.63
2022-08-02T11:01:44.425Z,100651.69
2022-08-02T11:06:04.581Z,100650.63
2022-08-02T11:10:25.058Z,100646.00
2022-08-02T11:14:26.709Z,100650.03
2022-08-02T11:18:46.700Z,100636.41
2022-08-02T11:22:51.191Z,100621.06
2022-08-02T11:26:53.012Z,100629.47
2022-08-02T11:31:02.659Z,100630.84
2022-08-02T11:35:04.660Z,100629.56
2022-08-02T11:39:10.822Z,100624.91
2022-08-02T11:43:23.230Z,100626.22
2022-08-02T11:47:24.982Z,100614.28
2022-08-02T11:51:26.584Z,100609.19
2022-08-02T11:55:29.603Z,100613.03
2022-08-02T11:59:31.257Z,100615.72
2022-08-02T12:03:39.459Z,100606.25
2022-08-02T12:07:46.211Z,100607.78
2022-08-02T12:11:51.335Z,100611.22
2022-08-02T12:15:53.031Z,100608.28
2022-08-02T12:19:54.763Z,100600.47
2022-08-02T12:23:59.723Z,100603.84
2022-08-02T12:28:20.351Z,100605.88
2022-08-02T12:32:25.217Z,100594.81
2022-08-02T12:36:30.619Z,100593.44
2022-08-02T12:40:33.593Z,100597.56
2022-08-02T12:44:38.532Z,100584.56
2022-08-02T12:48:56.493Z,100583.31
2022-08-02T12:53:15.794Z,100587.19
2022-08-02T12:57:19.502Z,100581.75
2022-08-02T13:01:26.776Z,100585.22
2022-08-02T13:05:29.930Z,100565.78
2022-08-02T13:09:51.496Z,100567.97
2022-08-02T13:14:04.924Z,100563.16
2022-08-02T13:18:06.902Z,100557.50
2022-08-02T13:22:10.815Z,100545.88
2022-08-02T13:26:12.510Z,100540.84
2022-08-02T13:30:14.426Z,100537.47
2022-08-02T13:34:16.652Z,100530.31
2022-08-02T13:38:23.191Z,100530.84
2022-08-02T13:42:26.467Z,100526.81
2022-08-02T13:46:28.568Z,100519.72
2022-08-02T13:50:31.388Z,100519.75
2022-08-02T13:54:33.170Z,100516.13
2022-08-02T13:58:34.862Z,100512.91
2022-08-02T14:02:40.318Z,100511.34
2022-08-02T14:06:42.301Z,100506.72
2022-08-02T14:10:44.418Z,100506.19
2022-08-02T14:14:46.036Z,100505.66
2022-08-02T14:18:47.586Z,100501.19
2022-08-02T14:22:49.716Z,100484.94
2022-08-02T14:26:51.370Z,100481.47
2022-08-02T14:30:52.924Z,100478.03
2022-08-02T14:34:54.482Z,100474.06
2022-08-02T14:38:56.768Z,100481.44
2022-08-02T14:42:59.532Z,100479.81
2022-08-02T14:47:01.181Z,100475.34
2022-08-02T14:51:02.841Z,100473.31
2022-08-02T14:55:05.566Z,100456.56
2022-08-02T14:59:07.270Z,100461.31
2022-08-02T15:03:10.020Z,100462.84
2022-08-02T15:07:13.351Z,100458.84
2022-08-02T15:11:15.025Z,100457.41
2022-08-02T15:15:16.664Z,100454.28
2022-08-02T15:19:18.221Z,100446.81
2022-08-02T15:23:21.646Z,100447.38
2022-08-02T15:27:23.334Z,100447.50
2022-08-02T15:31:33.181Z,100441.41
2022-08-02T15:35:35.170Z,100431.53
2022-08-02T15:39:37.071Z,100442.25
2022-08-02T15:44:00.083Z,100433.69
2022-08-02T15:48:00.298Z,100430.56
2022-08-02T15:52:01.902Z,100430.47
2022-08-02T15:56:06.664Z,100423.25
2022-08-02T16:00:18.018Z,100423.25
2022-08-02T16:04:20.296Z,100428.09
2022-08-02T16:08:21.873Z,100421.44
2022-08-02T16:12:32.567Z,100418.13
2022-08-02T16:16:36.256Z,100428.66
2022-08-02T16:20:38.054Z,100428.44
2022-08-02T16:24:39.894Z,100428.28
2022-08-02T16:28:41.576Z,100428.81
2022-08-02T16:32:43.242Z,100428.16
2022-08-02T16:36:45.586Z,100426.81
2022-08-02T16:40:47.204Z,100418.09
2022-08-02T16:44:53.633Z,100421.69
2022-08-02T16:48:56.379Z,100425.16
2022-08-02T16:52:58.797Z,100422.91
2022-08-02T16:57:00.853Z,100412.75
2022-08-02T17:01:03.100Z,100406.38
2022-08-02T17:05:13.911Z,100406.91
2022-08-02T17:10:02.437Z,100406.69
2022-08-02T17:13:38.113Z,100416.50
2022-08-02T17:17:43.170Z,100412.09
2022-08-02T17:21:44.838Z,100415.56
2022-08-02T17:25:50.280Z,100418.28
2022-08-02T17:29:55.280Z,100409.66
2022-08-02T17:33:57.119Z,100408.81
2022-08-02T17:38:00.320Z,100423.44
2022-08-02T17:42:02.758Z,100411.69
2022-08-02T17:46:06.537Z,100421.84
2022-08-02T17:50:09.921Z,100425.69
2022-08-02T17:54:18.711Z,100418.09
2022-08-02T17:58:20.515Z,100422.00
2022-08-02T18:02:22.205Z,100417.22
2022-08-02T18:06:26.154Z,100420.19
2022-08-02T18:10:28.465Z,100417.19
2022-08-02T18:14:30.340Z,100427.47
2022-08-02T18:18:31.991Z,100429.06
2022-08-02T18:22:34.421Z,100425.19
2022-08-02T18:26:37.545Z,100415.13
2022-08-02T18:30:39.229Z,100429.69
2022-08-02T18:34:40.807Z,100424.00
2022-08-02T18:38:49.272Z,100427.13
2022-08-02T18:42:50.837Z,100427.50
2022-08-02T18:46:52.453Z,100426.28
2022-08-02T18:50:54.226Z,100418.00
2022-08-02T18:54:57.368Z,100426.50
2022-08-02T18:58:58.987Z,100427.03
2022-08-02T19:03:00.673Z,100427.59
2022-08-02T19:07:07.673Z,100429.09
2022-08-02T19:11:09.862Z,100426.94
2022-08-02T19:15:13.499Z,100426.66
2022-08-02T19:19:19.390Z,100428.72
2022-08-02T19:23:21.210Z,100434.44
2022-08-02T19:27:26.094Z,100431.31
2022-08-02T19:31:34.655Z,100427.16
2022-08-02T19:36:02.102Z,100438.13
2022-08-02T19:40:07.906Z,100440.16
2022-08-02T19:44:23.172Z,100440.31
2022-08-02T19:48:30.319Z,100442.28
2022-08-02T19:52:32.440Z,100440.75
2022-08-02T19:56:36.295Z,100441.03
2022-08-02T20:00:37.848Z,100442.88
2022-08-02T20:04:42.064Z,100438.72
2022-08-02T20:08:53.291Z,100452.88
2022-08-02T20:13:13.154Z,100459.25
2022-08-02T20:17:15.415Z,100459.41
2022-08-02T20:21:36.423Z,100458.81
2022-08-02T20:25:38.584Z,100454.75
2022-08-02T20:29:49.926Z,100450.59
2022-08-02T20:33:56.074Z,100445.47
2022-08-02T20:38:02.129Z,100442.97
2022-08-02T20:42:22.656Z,100447.53
2022-08-02T20:46:25.671Z,100443.28
2022-08-02T20:50:45.853Z,100445.19
2022-08-02T20:54:51.645Z,100453.28
2022-08-02T20:58:53.211Z,100460.41
2022-08-02T21:02:54.773Z,100456.22
2022-08-02T21:06:59.191Z,100460.91
2022-08-02T21:11:01.283Z,100458.53
2022-08-02T21:15:12.452Z,100452.56
2022-08-02T21:19:14.200Z,100450.09
2022-08-02T21:23:19.840Z,100446.78
2022-08-02T21:27:52.112Z,100458.16
2022-08-02T21:31:43.781Z,100446.06
2022-08-02T21:35:45.433Z,100452.22
2022-08-02T21:39:51.764Z,100450.69
2022-08-02T21:43:58.111Z,100449.19
2022-08-02T21:48:02.066Z,100444.94
2022-08-02T21:52:04.483Z,100450.22
2022-08-02T21:56:10.547Z,100458.13
2022-08-02T22:00:12.762Z,100468.66
2022-08-02T22:04:14.508Z,100461.03
2022-08-02T22:08:18.001Z,100468.56
2022-08-02T22:12:21.865Z,100480.59
2022-08-02T22:16:27.626Z,100480.69
2022-08-02T22:20:29.395Z,100484.25
2022-08-02T22:24:31.056Z,100485.28
2022-08-02T22:28:39.025Z,100489.72
2022-08-02T22:33:15.003Z,100487.19
2022-08-02T22:38:16.024Z,100487.41
2022-08-02T22:42:00.904Z,100488.28
2022-08-02T22:46:36.786Z,100497.00
2022-08-02T22:50:38.595Z,100496.19
2022-08-02T22:54:40.219Z,100493.50
2022-08-02T23:03:06.677Z,100510.13
2022-08-02T23:07:08.564Z,100509.34
2022-08-02T23:11:10.323Z,100505.03
2022-08-02T23:15:11.933Z,100499.03
2022-08-02T23:19:31.888Z,100507.88
2022-08-02T23:23:33.448Z,100507.19
2022-08-02T23:27:35.505Z,100503.00
2022-08-02T23:31:38.244Z,100497.84
2022-08-02T23:35:40.146Z,100504.94
2022-08-02T23:39:41.899Z,100509.41
2022-08-02T23:44:03.777Z,100508.63
2022-08-02T23:48:05.118Z,100510.44
2022-08-02T23:52:06.747Z,100508.78
2022-08-02T23:56:08.547Z,100506.25
